createdAt,value
2017-09-21T00:00:17.293Z,12.90
2017-09-21T00:02:44.981Z,12.90
2017-09-21T00:05:12.494Z,12.90
2017-09-21T00:07:40.170Z,12.90
2017-09-21T00:10:07.684Z,12.80
2017-09-21T00:12:35.208Z,12.80
2017-09-21T00:15:02.876Z,12.80
2017-09-21T00:17:30.506Z,12.90
2017-09-21T00:19:59.365Z,13.00
2017-09-21T00:22:27.033Z,12.90
2017-09-21T00:24:54.548Z,12.90
2017-09-21T00:27:22.060Z,13.00
2017-09-21T00:29:49.584Z,12.90
2017-09-21T00:32:17.091Z,12.90
2017-09-21T00:34:44.699Z,12.90
2017-09-21T00:37:12.452Z,12.90
2017-09-21T00:39:39.955Z,12.90
2017-09-21T00:42:07.668Z,12.90
2017-09-21T00:44:35.420Z,12.90
2017-09-21T00:47:03.194Z,13.00
2017-09-21T00:49:30.849Z,13.10
2017-09-21T00:51:58.416Z,13.00
2017-09-21T00:54:26.180Z,13.00
2017-09-21T00:56:53.687Z,13.00
2017-09-21T00:59:21.199Z,13.00
2017-09-21T01:01:49.336Z,13.00
2017-09-21T01:04:16.923Z,12.80
2017-09-21T01:06:44.652Z,12.80
2017-09-21T01:09:12.255Z,12.80
2017-09-21T01:11:39.779Z,12.90
2017-09-21T01:14:07.365Z,12.90
2017-09-21T01:16:35.129Z,12.90
2017-09-21T01:19:02.628Z,12.90
2017-09-21T01:21:30.347Z,12.90
2017-09-21T01:23:57.870Z,12.80
2017-09-21T01:26:25.374Z,12.80
2017-09-21T01:28:52.896Z,12.80
2017-09-21T01:31:20.398Z,12.90
2017-09-21T01:33:47.931Z,12.90
2017-09-21T01:36:15.443Z,12.90
2017-09-21T01:38:43.030Z,13.00
2017-09-21T01:41:10.531Z,13.00
2017-09-21T01:43:38.052Z,13.00
2017-09-21T01:46:05.835Z,13.00
2017-09-21T01:48:34.055Z,13.10
2017-09-21T01:51:02.338Z,13.10
2017-09-21T01:53:29.844Z,13.00
2017-09-21T01:55:57.370Z,13.10
2017-09-21T01:58:24.871Z,13.10
2017-09-21T02:00:52.592Z,12.90
2017-09-21T02:03:20.088Z,12.90
2017-09-21T02:05:47.612Z,12.80
2017-09-21T02:08:15.120Z,12.70
2017-09-21T02:10:43.340Z,12.70
2017-09-21T02:13:10.929Z,12.80
2017-09-21T02:15:38.695Z,12.80
2017-09-21T02:18:06.204Z,12.70
2017-09-21T02:20:33.905Z,12.70
2017-09-21T02:23:01.419Z,12.80
2017-09-21T02:25:28.926Z,12.90
2017-09-21T02:27:56.594Z,12.80
2017-09-21T02:30:24.115Z,12.80
2017-09-21T02:32:51.766Z,12.80
2017-09-21T02:35:19.284Z,12.80
2017-09-21T02:37:47.030Z,12.90
2017-09-21T02:40:14.532Z,12.80
2017-09-21T02:42:42.115Z,12.70
2017-09-21T02:45:09.612Z,12.80
2017-09-21T02:47:37.132Z,12.70
2017-09-21T02:50:04.635Z,12.70
2017-09-21T02:52:32.553Z,12.80
2017-09-21T02:55:00.147Z,12.80
2017-09-21T02:57:27.661Z,12.90
2017-09-21T02:59:55.363Z,12.90
2017-09-21T03:02:22.875Z,12.90
2017-09-21T03:04:50.451Z,12.90
2017-09-21T03:07:18.009Z,13.00
2017-09-21T03:09:45.520Z,12.90
2017-09-21T03:12:13.257Z,12.90
2017-09-21T03:14:41.020Z,12.90
2017-09-21T03:17:08.792Z,13.00
2017-09-21T03:19:36.503Z,13.00
2017-09-21T03:22:04.012Z,12.90
2017-09-21T03:24:31.541Z,12.90
2017-09-21T03:26:59.240Z,12.90
2017-09-21T03:29:27.018Z,13.00
2017-09-21T03:31:54.536Z,13.00
2017-09-21T03:34:22.189Z,13.00
2017-09-21T03:36:49.972Z,13.00
2017-09-21T03:39:17.733Z,13.00
2017-09-21T03:41:45.499Z,13.00
2017-09-21T03:44:13.133Z,13.00
2017-09-21T03:46:40.634Z,12.90
2017-09-21T03:49:09.068Z,13.00
2017-09-21T03:51:36.575Z,13.00
2017-09-21T03:54:04.116Z,13.00
2017-09-21T03:56:31.634Z,13.00
2017-09-21T03:58:59.349Z,13.00
2017-09-21T04:01:26.842Z,13.00
2017-09-21T04:03:54.371Z,13.00
2017-09-21T04:06:21.902Z,13.00
2017-09-21T04:08:49.535Z,13.00
2017-09-21T04:11:17.109Z,13.10
2017-09-21T04:13:44.606Z,13.00
2017-09-21T04:16:12.113Z,12.90
2017-09-21T04:18:39.777Z,12.90
2017-09-21T04:21:07.295Z,12.90
2017-09-21T04:23:34.994Z,12.90
2017-09-21T04:26:02.513Z,12.90
2017-09-21T04:28:30.025Z,13.00
2017-09-21T04:30:57.544Z,13.00
2017-09-21T04:33:25.156Z,13.00
2017-09-21T04:35:52.675Z,13.00
2017-09-21T04:38:20.314Z,13.00
2017-09-21T04:40:48.005Z,13.00
2017-09-21T04:43:15.592Z,13.00
2017-09-21T04:45:43.126Z,13.10
2017-09-21T04:48:10.623Z,13.10
2017-09-21T04:50:38.274Z,13.20
2017-09-21T04:53:06.047Z,13.10
2017-09-21T04:55:33.549Z,13.10
2017-09-21T04:58:01.125Z,13.10
2017-09-21T05:00:28.717Z,13.10
2017-09-21T05:02:56.477Z,13.10
2017-09-21T05:05:23.985Z,13.20
2017-09-21T05:07:51.701Z,13.10
2017-09-21T05:10:19.208Z,13.10
2017-09-21T05:12:46.724Z,13.10
2017-09-21T05:15:14.367Z,13.10
2017-09-21T05:17:41.879Z,13.10
2017-09-21T05:20:09.395Z,13.10
2017-09-21T05:22:36.903Z,13.10
2017-09-21T05:25:04.423Z,13.20
2017-09-21T05:27:32.068Z,13.10
2017-09-21T05:29:59.585Z,13.10
2017-09-21T05:32:28.109Z,13.10
2017-09-21T05:34:55.617Z,13.10
2017-09-21T05:37:23.128Z,13.10
2017-09-21T05:39:50.752Z,13.10
2017-09-21T05:42:18.278Z,13.10
2017-09-21T05:44:45.999Z,13.10
2017-09-21T05:47:13.561Z,13.00
2017-09-21T05:49:41.092Z,13.10
2017-09-21T05:52:08.604Z,13.10
2017-09-21T05:54:36.128Z,13.10
2017-09-21T05:57:03.636Z,13.10
2017-09-21T05:59:31.159Z,13.20
2017-09-21T06:01:58.784Z,13.20
2017-09-21T06:04:26.295Z,13.20
2017-09-21T06:06:54.044Z,13.20
2017-09-21T06:09:21.596Z,13.20
2017-09-21T06:11:49.241Z,13.20
2017-09-21T06:14:16.747Z,13.30
2017-09-21T06:16:44.455Z,13.30
2017-09-21T06:19:12.242Z,13.30
2017-09-21T06:21:39.998Z,13.30
2017-09-21T06:24:07.533Z,13.40
2017-09-21T06:26:35.216Z,13.40
2017-09-21T06:29:02.727Z,13.40
2017-09-21T06:31:30.435Z,13.50
2017-09-21T06:33:57.943Z,13.50
2017-09-21T06:36:25.566Z,13.50
2017-09-21T06:38:53.117Z,13.60
2017-09-21T06:41:20.891Z,13.60
2017-09-21T06:43:48.659Z,13.60
2017-09-21T06:46:16.147Z,13.60
2017-09-21T06:48:43.860Z,13.70
2017-09-21T06:51:11.652Z,13.80
2017-09-21T06:53:39.178Z,13.80
2017-09-21T06:56:06.824Z,13.80
2017-09-21T06:58:34.616Z,13.90
2017-09-21T07:01:02.371Z,14.00
2017-09-21T07:03:29.888Z,14.00
2017-09-21T07:05:57.528Z,14.00
2017-09-21T07:08:25.060Z,14.10
2017-09-21T07:10:52.810Z,14.10
2017-09-21T07:13:20.588Z,14.20
2017-09-21T07:15:48.110Z,14.20
2017-09-21T07:18:15.784Z,14.30
2017-09-21T07:20:43.287Z,14.40
2017-09-21T07:23:11.018Z,14.40
2017-09-21T07:25:38.526Z,14.30
2017-09-21T07:28:06.059Z,14.30
2017-09-21T07:30:33.665Z,14.40
2017-09-21T07:33:01.197Z,14.40
2017-09-21T07:35:28.828Z,14.50
2017-09-21T07:37:56.339Z,14.50
2017-09-21T07:40:23.858Z,14.50
2017-09-21T07:42:51.603Z,14.40
2017-09-21T07:45:19.324Z,14.30
2017-09-21T07:47:46.837Z,14.30
2017-09-21T07:50:14.354Z,14.40
2017-09-21T07:52:42.034Z,14.60
2017-09-21T07:55:09.662Z,14.70
2017-09-21T07:57:37.156Z,14.80
2017-09-21T08:00:04.659Z,14.70
2017-09-21T08:02:32.295Z,14.80
2017-09-21T08:05:00.576Z,14.70
2017-09-21T08:07:28.108Z,14.60
2017-09-21T08:09:55.756Z,14.60
2017-09-21T08:12:23.271Z,14.60
2017-09-21T08:14:50.912Z,14.60
2017-09-21T08:17:18.449Z,14.70
2017-09-21T08:19:46.213Z,14.70
2017-09-21T08:22:13.734Z,14.70
2017-09-21T08:24:41.258Z,14.70
2017-09-21T08:27:09.528Z,14.60
2017-09-21T08:29:37.040Z,14.60
2017-09-21T08:32:04.552Z,14.60
2017-09-21T08:34:33.096Z,14.80
2017-09-21T08:37:00.826Z,14.80
2017-09-21T08:39:28.325Z,14.90
2017-09-21T08:41:56.088Z,15.10
2017-09-21T08:44:23.850Z,15.00
2017-09-21T08:46:51.354Z,15.00
2017-09-21T08:49:18.866Z,15.00
2017-09-21T08:51:46.468Z,15.30
2017-09-21T08:54:14.503Z,15.00
2017-09-21T08:56:42.041Z,15.10
2017-09-21T08:59:09.558Z,15.30
2017-09-21T09:01:37.077Z,15.40
2017-09-21T09:04:04.604Z,15.60
2017-09-21T09:06:32.180Z,15.50
2017-09-21T09:08:59.745Z,15.50
2017-09-21T09:11:27.390Z,15.40
2017-09-21T09:13:55.783Z,15.50
2017-09-21T09:16:23.287Z,15.40
2017-09-21T09:18:50.795Z,15.40
2017-09-21T09:21:18.353Z,15.50
2017-09-21T09:23:45.881Z,15.80
2017-09-21T09:26:13.384Z,15.80
2017-09-21T09:28:40.920Z,15.80
2017-09-21T09:31:08.424Z,15.80
2017-09-21T09:33:36.698Z,15.80
2017-09-21T09:36:04.926Z,15.80
2017-09-21T09:38:32.496Z,15.80
2017-09-21T09:41:00.257Z,15.90
2017-09-21T09:43:27.760Z,16.00
2017-09-21T09:45:55.488Z,16.10
2017-09-21T09:48:22.994Z,16.10
2017-09-21T09:50:50.686Z,16.10
2017-09-21T09:53:18.194Z,16.10
2017-09-21T09:55:45.909Z,16.10
2017-09-21T09:58:13.412Z,16.10
2017-09-21T10:00:40.934Z,16.00
2017-09-21T10:03:08.459Z,16.00
2017-09-21T10:05:36.128Z,16.10
2017-09-21T10:08:03.632Z,16.00
2017-09-21T10:10:32.182Z,16.20
2017-09-21T10:13:01.303Z,16.20
2017-09-21T10:15:28.809Z,16.20
2017-09-21T10:17:56.328Z,16.20
2017-09-21T10:20:23.841Z,16.20
2017-09-21T10:22:51.367Z,16.30
2017-09-21T10:25:19.649Z,16.30
2017-09-21T10:27:47.176Z,16.30
2017-09-21T10:30:14.776Z,16.30
2017-09-21T10:32:42.330Z,16.40
2017-09-21T10:35:09.846Z,16.40
2017-09-21T10:37:37.366Z,16.50
2017-09-21T10:40:04.881Z,16.60
2017-09-21T10:42:32.419Z,16.50
2017-09-21T10:45:00.694Z,16.60
2017-09-21T10:47:28.219Z,16.60
2017-09-21T10:49:55.754Z,16.60
2017-09-21T10:54:57.228Z,16.70
2017-09-21T10:57:24.892Z,16.60
2017-09-21T10:59:52.408Z,16.90
2017-09-21T11:02:20.132Z,16.80
2017-09-21T11:04:47.902Z,16.70
2017-09-21T11:07:16.249Z,16.90
2017-09-21T11:09:43.768Z,16.90
2017-09-21T11:12:11.494Z,16.90
2017-09-21T11:14:39.272Z,17.10
2017-09-21T11:17:07.115Z,17.00
2017-09-21T11:19:34.628Z,16.90
2017-09-21T11:22:02.903Z,17.10
2017-09-21T11:24:30.698Z,17.10
2017-09-21T11:26:58.205Z,17.20
2017-09-21T11:29:25.733Z,17.40
2017-09-21T11:31:53.309Z,17.50
2017-09-21T11:34:21.060Z,17.40
2017-09-21T11:36:48.573Z,17.10
2017-09-21T11:39:16.125Z,17.10
2017-09-21T11:41:43.636Z,17.10
2017-09-21T11:44:11.196Z,17.10
2017-09-21T11:46:38.703Z,17.20
2017-09-21T11:49:06.596Z,17.50
2017-09-21T11:51:34.089Z,17.70
2017-09-21T11:54:01.973Z,17.90
2017-09-21T11:56:29.564Z,17.90
2017-09-21T11:58:57.164Z,17.90
2017-09-21T12:01:24.677Z,17.80
2017-09-21T12:03:52.328Z,17.50
2017-09-21T12:06:19.865Z,17.50
2017-09-21T12:08:47.599Z,17.50
2017-09-21T12:11:15.107Z,17.60
2017-09-21T12:13:42.950Z,17.80
2017-09-21T12:16:10.456Z,18.10
2017-09-21T12:18:37.980Z,18.00
2017-09-21T12:21:06.319Z,18.10
2017-09-21T12:23:33.850Z,18.10
2017-09-21T12:26:01.410Z,18.00
2017-09-21T12:28:28.902Z,18.00
2017-09-21T12:30:56.424Z,18.20
2017-09-21T12:33:23.992Z,18.40
2017-09-21T12:35:51.500Z,18.60
2017-09-21T12:38:19.137Z,18.80
2017-09-21T12:40:46.660Z,18.80
2017-09-21T12:43:14.172Z,18.70
2017-09-21T12:45:42.451Z,18.60
2017-09-21T12:48:10.720Z,18.50
2017-09-21T12:50:38.254Z,18.40
2017-09-21T12:53:06.000Z,18.40
2017-09-21T12:55:33.587Z,18.40
2017-09-21T12:58:01.129Z,18.30
2017-09-21T13:00:28.769Z,18.30
2017-09-21T13:02:56.293Z,18.10
2017-09-21T13:05:23.807Z,17.90
2017-09-21T13:07:51.317Z,18.00
2017-09-21T13:10:19.592Z,18.20
2017-09-21T13:12:47.113Z,18.20
2017-09-21T13:15:14.941Z,18.20
2017-09-21T13:17:42.527Z,18.20
2017-09-21T13:20:10.074Z,18.10
2017-09-21T13:22:37.585Z,18.10
2017-09-21T13:25:06.124Z,18.10
2017-09-21T13:27:33.644Z,18.10
2017-09-21T13:30:01.353Z,18.20
2017-09-21T13:32:28.904Z,18.30
2017-09-21T13:34:56.399Z,18.30
2017-09-21T13:37:24.691Z,18.10
2017-09-21T13:39:52.206Z,18.00
2017-09-21T13:42:19.851Z,18.00
2017-09-21T13:44:47.369Z,18.00
2017-09-21T13:47:15.691Z,18.00
2017-09-21T13:49:43.204Z,18.20
2017-09-21T13:52:10.755Z,18.40
2017-09-21T13:54:39.049Z,18.50
2017-09-21T13:57:06.599Z,18.50
2017-09-21T13:59:34.117Z,18.80
2017-09-21T14:02:01.642Z,18.90
2017-09-21T14:04:29.157Z,18.90
2017-09-21T14:06:56.790Z,18.80
2017-09-21T14:09:24.296Z,18.90
2017-09-21T14:11:52.448Z,19.00
2017-09-21T14:14:20.183Z,19.00
2017-09-21T14:16:47.685Z,19.00
2017-09-21T14:19:15.436Z,18.90
2017-09-21T14:21:43.226Z,18.80
2017-09-21T14:24:10.789Z,18.80
2017-09-21T14:26:38.373Z,18.60
2017-09-21T14:29:05.893Z,18.50
2017-09-21T14:31:33.428Z,18.40
2017-09-21T14:34:01.708Z,18.50
2017-09-21T14:36:29.432Z,18.40
2017-09-21T14:38:56.947Z,18.40
2017-09-21T14:41:24.652Z,18.40
2017-09-21T14:43:52.194Z,18.20
2017-09-21T14:46:19.844Z,18.00
2017-09-21T14:48:47.357Z,18.00
2017-09-21T14:51:14.880Z,17.90
2017-09-21T14:53:42.540Z,17.90
2017-09-21T14:56:10.061Z,17.90
2017-09-21T14:58:37.593Z,17.80
2017-09-21T15:01:05.914Z,17.80
2017-09-21T15:03:33.593Z,17.80
2017-09-21T15:06:02.024Z,17.80
2017-09-21T15:08:29.532Z,17.80
2017-09-21T15:10:57.152Z,17.80
2017-09-21T15:13:24.659Z,17.70
2017-09-21T15:15:52.297Z,17.80
2017-09-21T15:18:19.876Z,17.80
2017-09-21T15:20:47.384Z,17.90
2017-09-21T15:23:15.094Z,17.80
2017-09-21T15:25:42.603Z,17.90
2017-09-21T15:28:10.316Z,17.80
2017-09-21T15:30:37.824Z,17.90
2017-09-21T15:33:05.524Z,17.90
2017-09-21T15:35:33.294Z,17.80
2017-09-21T15:38:00.904Z,17.80
2017-09-21T15:40:29.182Z,17.70
2017-09-21T15:42:56.877Z,17.70
2017-09-21T15:45:24.660Z,17.70
2017-09-21T15:47:52.415Z,17.70
2017-09-21T15:50:20.188Z,17.70
2017-09-21T15:52:47.704Z,17.70
2017-09-21T15:55:15.228Z,17.70
2017-09-21T15:57:42.875Z,17.70
2017-09-21T16:00:10.619Z,17.70
2017-09-21T16:02:38.128Z,17.70
2017-09-21T16:05:05.640Z,17.70
2017-09-21T16:07:33.304Z,17.70
2017-09-21T16:10:00.825Z,17.70
2017-09-21T16:12:28.523Z,17.60
2017-09-21T16:14:56.310Z,17.70
2017-09-21T16:17:23.832Z,17.60
2017-09-21T16:19:51.332Z,17.50
2017-09-21T16:22:18.937Z,17.40
2017-09-21T16:24:46.736Z,17.40
2017-09-21T16:27:15.229Z,17.40
2017-09-21T16:29:42.765Z,17.40
2017-09-21T16:32:10.353Z,17.50
2017-09-21T16:34:38.020Z,17.40
2017-09-21T16:37:05.849Z,17.40
2017-09-21T16:39:33.357Z,17.40
2017-09-21T16:42:00.877Z,17.30
2017-09-21T16:44:28.457Z,17.30
2017-09-21T16:46:55.972Z,17.20
2017-09-21T16:49:23.510Z,17.20
2017-09-21T16:51:51.188Z,17.10
2017-09-21T16:54:18.963Z,17.10
2017-09-21T16:56:46.485Z,17.00
2017-09-21T16:59:14.184Z,16.90
2017-09-21T17:01:41.709Z,16.90
2017-09-21T17:04:09.389Z,16.80
2017-09-21T17:06:36.900Z,16.80
2017-09-21T17:09:04.412Z,16.70
2017-09-21T17:11:32.081Z,16.60
2017-09-21T17:14:00.096Z,16.60
2017-09-21T17:16:27.612Z,16.50
2017-09-21T17:18:55.132Z,16.40
2017-09-21T17:21:22.713Z,16.40
2017-09-21T17:23:50.236Z,16.40
2017-09-21T17:26:17.743Z,16.30
2017-09-21T17:28:45.511Z,16.30
2017-09-21T17:31:13.278Z,16.20
2017-09-21T17:33:41.041Z,16.20
2017-09-21T17:36:08.806Z,16.10
2017-09-21T17:38:36.350Z,16.10
2017-09-21T17:41:03.835Z,16.00
2017-09-21T17:43:31.378Z,16.00
2017-09-21T17:45:58.880Z,16.00
2017-09-21T17:48:27.323Z,16.00
2017-09-21T17:50:54.843Z,15.90
2017-09-21T17:53:23.312Z,15.90
2017-09-21T17:55:51.031Z,15.90
2017-09-21T17:58:18.672Z,15.90
2017-09-21T18:00:46.436Z,15.90
2017-09-21T18:03:13.987Z,15.90
2017-09-21T18:05:41.565Z,16.00
2017-09-21T18:08:09.120Z,15.90
2017-09-21T18:10:36.656Z,15.90
2017-09-21T18:13:04.164Z,15.80
2017-09-21T18:15:32.435Z,15.80
2017-09-21T18:17:59.956Z,15.80
2017-09-21T18:20:27.492Z,15.80
2017-09-21T18:22:55.055Z,15.80
2017-09-21T18:25:22.581Z,15.80
2017-09-21T18:27:50.091Z,15.80
2017-09-21T18:30:17.621Z,15.80
2017-09-21T18:32:45.216Z,15.80
2017-09-21T18:35:12.748Z,15.80
2017-09-21T18:37:40.254Z,15.80
2017-09-21T18:40:07.796Z,15.80
2017-09-21T18:42:35.332Z,15.80
2017-09-21T18:45:02.845Z,15.80
2017-09-21T18:47:30.564Z,15.80
2017-09-21T18:49:58.604Z,15.80
2017-09-21T18:52:26.325Z,15.80
2017-09-21T18:54:53.853Z,15.80
2017-09-21T18:57:21.581Z,15.80
2017-09-21T18:59:49.205Z,15.90
2017-09-21T19:02:16.724Z,15.80
2017-09-21T19:04:44.271Z,15.80
2017-09-21T19:07:12.060Z,15.80
2017-09-21T19:09:39.588Z,15.90
2017-09-21T19:12:07.274Z,15.80
2017-09-21T19:14:34.788Z,15.90
2017-09-21T19:17:02.476Z,15.80
2017-09-21T19:19:29.989Z,15.80
2017-09-21T19:21:57.720Z,15.80
2017-09-21T19:24:25.232Z,15.80
2017-09-21T19:26:52.918Z,15.80
2017-09-21T19:29:20.424Z,15.80
2017-09-21T19:31:48.170Z,15.80
2017-09-21T19:34:15.676Z,15.80
2017-09-21T19:36:43.188Z,15.80
2017-09-21T19:39:10.841Z,15.80
2017-09-21T19:41:38.629Z,15.80
2017-09-21T19:44:06.133Z,15.90
2017-09-21T19:46:33.649Z,15.90
2017-09-21T19:49:01.936Z,15.70
2017-09-21T19:51:29.447Z,15.70
2017-09-21T19:53:57.088Z,15.70
2017-09-21T19:56:24.599Z,15.70
2017-09-21T19:58:52.111Z,15.60
2017-09-21T20:01:19.628Z,15.70
2017-09-21T20:03:47.918Z,15.70
2017-09-21T20:06:15.597Z,15.70
2017-09-21T20:08:43.115Z,15.70
2017-09-21T20:11:11.427Z,15.70
2017-09-21T20:13:38.951Z,15.70
2017-09-21T20:16:06.677Z,15.70
2017-09-21T20:18:34.305Z,15.60
2017-09-21T20:21:01.898Z,15.60
2017-09-21T20:23:29.410Z,15.60
2017-09-21T20:25:57.027Z,15.60
2017-09-21T20:28:24.585Z,15.50
2017-09-21T20:30:52.336Z,15.30
2017-09-21T20:33:20.285Z,15.30
2017-09-21T20:35:47.860Z,15.30
2017-09-21T20:38:15.399Z,15.20
2017-09-21T20:40:43.061Z,15.20
2017-09-21T20:43:10.564Z,15.20
2017-09-21T20:45:38.087Z,15.10
2017-09-21T20:48:05.597Z,15.10
2017-09-21T20:50:34.088Z,15.10
2017-09-21T20:53:01.607Z,15.00
2017-09-21T20:55:29.131Z,15.10
2017-09-21T20:57:56.820Z,15.00
2017-09-21T21:00:24.608Z,15.00
2017-09-21T21:02:52.113Z,15.00
2017-09-21T21:05:19.781Z,15.00
2017-09-21T21:07:47.560Z,15.00
2017-09-21T21:10:15.089Z,14.90
2017-09-21T21:12:42.760Z,14.90
2017-09-21T21:15:10.276Z,14.90
2017-09-21T21:17:37.792Z,14.90
2017-09-21T21:20:05.448Z,14.90
2017-09-21T21:22:32.961Z,15.00
2017-09-21T21:25:00.468Z,15.00
2017-09-21T21:27:28.170Z,15.00
2017-09-21T21:29:55.899Z,15.00
2017-09-21T21:32:23.399Z,15.00
2017-09-21T21:34:50.912Z,15.00
2017-09-21T21:37:18.568Z,15.00
2017-09-21T21:39:46.092Z,15.00
2017-09-21T21:42:13.819Z,15.00
2017-09-21T21:44:41.332Z,15.00
2017-09-21T21:47:08.856Z,15.00
2017-09-21T21:49:37.344Z,15.00
2017-09-21T21:52:04.864Z,15.00
2017-09-21T21:54:32.384Z,15.00
2017-09-21T21:57:00.112Z,15.00
2017-09-21T21:59:27.595Z,15.00
2017-09-21T22:01:55.263Z,15.00
2017-09-21T22:04:23.060Z,15.00
2017-09-21T22:06:50.598Z,15.00
2017-09-21T22:09:18.459Z,15.00
2017-09-21T22:11:46.032Z,15.10
2017-09-21T22:14:13.563Z,15.10
2017-09-21T22:16:41.260Z,15.10
2017-09-21T22:19:08.783Z,15.10
2017-09-21T22:21:36.557Z,15.10
2017-09-21T22:24:04.219Z,15.10
2017-09-21T22:26:32.005Z,15.10
2017-09-21T22:28:59.783Z,15.10
2017-09-21T22:31:27.547Z,15.10
2017-09-21T22:33:55.065Z,15.00
2017-09-21T22:36:22.583Z,15.00
2017-09-21T22:38:50.972Z,15.10
2017-09-21T22:41:19.664Z,15.10
2017-09-21T22:43:47.270Z,15.10
2017-09-21T22:46:15.884Z,15.10
2017-09-21T22:48:43.632Z,15.10
2017-09-21T22:51:11.179Z,15.10
2017-09-21T22:53:38.941Z,15.10
2017-09-21T22:56:07.348Z,15.10
2017-09-21T22:58:35.083Z,15.00
2017-09-21T23:01:02.625Z,15.10
2017-09-21T23:03:30.280Z,15.10
2017-09-21T23:05:58.649Z,15.00
2017-09-21T23:08:26.162Z,14.90
2017-09-21T23:10:53.692Z,14.90
2017-09-21T23:13:22.043Z,14.90
2017-09-21T23:15:49.671Z,14.90
2017-09-21T23:18:17.189Z,15.00
2017-09-21T23:20:44.967Z,15.00
2017-09-21T23:23:12.732Z,15.00
2017-09-21T23:25:40.255Z,15.00
2017-09-21T23:28:07.935Z,15.00
2017-09-21T23:30:35.444Z,15.00
2017-09-21T23:33:03.158Z,15.00
2017-09-21T23:35:30.933Z,15.00
2017-09-21T23:37:58.680Z,15.00
2017-09-21T23:40:26.627Z,15.00
2017-09-21T23:42:54.188Z,15.00
2017-09-21T23:45:21.700Z,15.00
2017-09-21T23:47:49.216Z,14.90
2017-09-21T23:50:16.785Z,14.80
2017-09-21T23:52:44.344Z,14.80
2017-09-21T23:55:12.107Z,14.70
2017-09-21T23:57:40.855Z,15.00
